Time;durP1;ratioP1;P1;durP2;ratioP2;P2;SDS_P1;SDS_P2;PMS_P1;PMS_P2;Temp;Humidity;BMP_temperature;BMP_pressure;BME280_temperature;BME280_humidity;BME280_pressure;Samples;Min_cycle;Max_cycle;Signal;HPM_P1;HPM_P2
2021/11/30 00:00:36;;;;;;;;;;;21.10;50.70;;;;;;3143827;28;19925;-62
2021/11/30 00:02:08;;;;;;;;;;;21.10;50.60;;;;;;3146529;28;19931;-61
2021/11/30 00:03:38;;;;;;;;;;;21.10;50.50;;;;;;3143185;28;19929;-60
2021/11/30 00:05:10;;;;;;;;;;;21.10;50.60;;;;;;3146074;28;20495;-62
2021/11/30 00:06:41;;;;;;;;;;;21.10;50.50;;;;;;3144987;28;19994;-61
2021/11/30 00:08:12;;;;;;;;;;;21.20;50.40;;;;;;3146076;28;19925;-62
2021/11/30 00:11:33;;;;;;;;;;;21.20;50.30;;;;;;3145391;28;19920;-63
2021/11/30 00:13:04;;;;;;;;;;;21.20;50.30;;;;;;3145505;28;19925;-61
2021/11/30 00:14:36;;;;;;;;;;;21.30;50.20;;;;;;3146502;28;19924;-62
2021/11/30 00:16:10;;;;;;;;;;;21.30;50.20;;;;;;3144955;28;19932;-62
2021/11/30 00:17:41;;;;;;;;;;;21.30;50.20;;;;;;3145851;28;20385;-62
2021/11/30 00:19:13;;;;;;;;;;;21.30;50.10;;;;;;3145243;28;19950;-61
2021/11/30 00:20:45;;;;;;;;;;;21.30;50.00;;;;;;3151070;28;19924;-62
2021/11/30 00:22:17;;;;;;;;;;;21.30;50.00;;;;;;3138472;28;19971;-62
2021/11/30 00:23:48;;;;;;;;;;;21.30;50.00;;;;;;3143148;28;19991;-62
2021/11/30 00:25:20;;;;;;;;;;;21.30;49.90;;;;;;3146011;28;19925;-62
2021/11/30 00:26:51;;;;;;;;;;;21.40;49.90;;;;;;3145772;28;19978;-62
2021/11/30 00:28:23;;;;;;;;;;;21.40;49.90;;;;;;3145142;28;20380;-61
2021/11/30 00:29:55;;;;;;;;;;;21.40;49.80;;;;;;3146385;28;19925;-61
2021/11/30 00:31:27;;;;;;;;;;;21.40;49.80;;;;;;3144888;28;19951;-61
2021/11/30 00:32:59;;;;;;;;;;;21.40;49.80;;;;;;3145622;28;19924;-62
2021/11/30 00:34:31;;;;;;;;;;;21.40;50.40;;;;;;3145419;28;19929;-62
2021/11/30 00:36:02;;;;;;;;;;;21.40;49.80;;;;;;3138515;28;19932;-63
2021/11/30 00:37:34;;;;;;;;;;;21.40;49.70;;;;;;3144599;28;19989;-62
2021/11/30 00:39:05;;;;;;;;;;;21.40;49.70;;;;;;3144482;28;19924;-60
2021/11/30 00:40:39;;;;;;;;;;;21.40;49.70;;;;;;3146185;28;19986;-62
2021/11/30 00:42:10;;;;;;;;;;;21.40;49.70;;;;;;3145750;28;19932;-63
2021/11/30 00:43:41;;;;;;;;;;;21.40;49.70;;;;;;3144783;28;19920;-62
2021/11/30 00:45:15;;;;;;;;;;;21.40;49.70;;;;;;3145977;28;19928;-62
2021/11/30 00:46:51;;;;;;;;;;;21.40;49.60;;;;;;3145704;28;19979;-62
2021/11/30 00:48:29;;;;;;;;;;;21.40;49.60;;;;;;3145084;28;19932;-61
2021/11/30 00:50:01;;;;;;;;;;;21.40;49.60;;;;;;3146611;28;20270;-62
2021/11/30 00:51:33;;;;;;;;;;;21.40;49.60;;;;;;3137810;28;19925;-62
2021/11/30 00:53:03;;;;;;;;;;;21.40;49.60;;;;;;3145264;28;19940;-62
2021/11/30 00:54:35;;;;;;;;;;;21.50;49.60;;;;;;3145107;28;19931;-62
2021/11/30 00:56:07;;;;;;;;;;;21.40;49.60;;;;;;3145451;28;19925;-60
2021/11/30 00:57:39;;;;;;;;;;;21.40;49.60;;;;;;3145462;28;19932;-62
2021/11/30 00:59:11;;;;;;;;;;;21.40;49.60;;;;;;3144550;28;19986;-62
2021/11/30 01:00:43;;;;;;;;;;;21.40;49.70;;;;;;3143989;28;19924;-60
2021/11/30 01:02:16;;;;;;;;;;;21.40;49.60;;;;;;3146248;28;19925;-61
2021/11/30 01:03:48;;;;;;;;;;;21.40;49.60;;;;;;3143636;28;20389;-62
2021/11/30 01:05:19;;;;;;;;;;;21.50;49.50;;;;;;3145279;28;19931;-63
2021/11/30 01:06:50;;;;;;;;;;;21.40;49.50;;;;;;3144550;28;20591;-62
2021/11/30 01:08:22;;;;;;;;;;;21.40;49.50;;;;;;3145314;28;19925;-62
2021/11/30 01:09:53;;;;;;;;;;;21.50;49.40;;;;;;3144109;28;20751;-62
2021/11/30 01:11:24;;;;;;;;;;;21.50;49.40;;;;;;3144002;28;19924;-62
2021/11/30 01:12:56;;;;;;;;;;;21.50;49.40;;;;;;3145273;28;20582;-62
2021/11/30 01:14:27;;;;;;;;;;;21.50;49.40;;;;;;3141064;28;19947;-60
2021/11/30 01:15:59;;;;;;;;;;;21.50;49.40;;;;;;3144295;28;19933;-62
2021/11/30 01:17:32;;;;;;;;;;;21.40;49.40;;;;;;3143801;28;19928;-61
2021/11/30 01:19:03;;;;;;;;;;;21.40;49.40;;;;;;3145019;28;19931;-61
2021/11/30 01:20:35;;;;;;;;;;;21.50;49.40;;;;;;3145510;28;20373;-61
2021/11/30 01:22:06;;;;;;;;;;;21.50;49.40;;;;;;3134810;28;20377;-62
2021/11/30 01:23:38;;;;;;;;;;;21.50;49.40;;;;;;3140395;28;19925;-60
2021/11/30 01:25:09;;;;;;;;;;;21.50;49.30;;;;;;3145437;28;20292;-61
2021/11/30 01:26:41;;;;;;;;;;;21.50;49.30;;;;;;3142506;28;19932;-62
2021/11/30 01:28:12;;;;;;;;;;;21.50;49.20;;;;;;3143838;28;20376;-61
2021/11/30 01:29:44;;;;;;;;;;;21.50;49.30;;;;;;3145022;28;19928;-62
2021/11/30 01:31:15;;;;;;;;;;;21.50;49.10;;;;;;3143839;28;19925;-61
2021/11/30 01:32:48;;;;;;;;;;;21.60;49.10;;;;;;3144430;28;19924;-63
2021/11/30 01:34:20;;;;;;;;;;;21.60;49.00;;;;;;3144520;28;20389;-62
2021/11/30 01:35:52;;;;;;;;;;;21.50;49.10;;;;;;3146604;28;19932;-62
2021/11/30 01:37:23;;;;;;;;;;;21.50;49.10;;;;;;3144404;28;20300;-63
2021/11/30 01:38:55;;;;;;;;;;;21.50;49.00;;;;;;3143018;28;19951;-62
2021/11/30 01:40:27;;;;;;;;;;;21.50;49.00;;;;;;3145319;28;20403;-61
2021/11/30 01:41:58;;;;;;;;;;;21.60;49.00;;;;;;3145195;28;19971;-62
2021/11/30 01:43:38;;;;;;;;;;;21.50;49.00;;;;;;3144834;28;20241;-62
2021/11/30 01:45:11;;;;;;;;;;;21.50;49.00;;;;;;3145095;28;19924;-61
2021/11/30 01:46:55;;;;;;;;;;;21.50;49.00;;;;;;3145086;28;19928;-62
2021/11/30 01:50:17;;;;;;;;;;;21.50;49.00;;;;;;3146392;28;19959;-62
2021/11/30 01:51:49;;;;;;;;;;;21.60;49.00;;;;;;3138207;28;19946;-62
2021/11/30 01:53:21;;;;;;;;;;;21.50;49.00;;;;;;3138296;28;19982;-61
2021/11/30 01:54:53;;;;;;;;;;;21.50;49.10;;;;;;3143721;28;20011;-62
2021/11/30 01:56:24;;;;;;;;;;;21.50;49.00;;;;;;3145133;28;19928;-63
2021/11/30 01:57:56;;;;;;;;;;;21.50;49.00;;;;;;3145693;28;19925;-62
2021/11/30 01:59:27;;;;;;;;;;;21.50;48.90;;;;;;3142984;28;19951;-62
2021/11/30 02:00:59;;;;;;;;;;;21.60;48.90;;;;;;3143779;28;19967;-63
2021/11/30 02:02:31;;;;;;;;;;;21.50;48.90;;;;;;3145188;28;19994;-62
2021/11/30 02:04:04;;;;;;;;;;;21.60;48.80;;;;;;3137430;28;20432;-62
2021/11/30 02:05:37;;;;;;;;;;;21.60;48.90;;;;;;3149549;28;20478;-63
2021/11/30 02:07:09;;;;;;;;;;;21.50;48.90;;;;;;3145091;28;19925;-64
2021/11/30 02:08:40;;;;;;;;;;;21.50;48.80;;;;;;3143766;28;19925;-62
2021/11/30 02:10:12;;;;;;;;;;;21.50;48.80;;;;;;3144686;28;19930;-63
2021/11/30 02:11:43;;;;;;;;;;;21.50;48.80;;;;;;3144190;28;19955;-62
2021/11/30 02:13:15;;;;;;;;;;;21.50;48.80;;;;;;3141208;28;19924;-62
2021/11/30 02:14:47;;;;;;;;;;;21.50;48.90;;;;;;3138577;28;20015;-62
2021/11/30 02:16:20;;;;;;;;;;;21.50;48.80;;;;;;3137932;28;20361;-63
2021/11/30 02:17:52;;;;;;;;;;;21.50;48.80;;;;;;3141986;28;20019;-63
2021/11/30 02:19:25;;;;;;;;;;;21.50;48.80;;;;;;3145602;28;19932;-62
2021/11/30 02:20:59;;;;;;;;;;;21.50;48.80;;;;;;3140667;28;19932;-62
2021/11/30 02:22:31;;;;;;;;;;;21.50;48.90;;;;;;3143114;28;19971;-62
2021/11/30 02:24:03;;;;;;;;;;;21.50;48.80;;;;;;3142955;28;19925;-61
2021/11/30 02:25:34;;;;;;;;;;;21.50;48.70;;;;;;3140327;28;19933;-63
2021/11/30 02:27:06;;;;;;;;;;;21.50;48.70;;;;;;3144614;28;19925;-62
2021/11/30 02:28:37;;;;;;;;;;;21.50;48.70;;;;;;3142283;28;19944;-62
2021/11/30 02:30:09;;;;;;;;;;;21.50;48.70;;;;;;3148243;28;19925;-63
2021/11/30 02:31:45;;;;;;;;;;;21.50;48.70;;;;;;3146830;28;21193;-62
2021/11/30 02:33:16;;;;;;;;;;;21.50;48.70;;;;;;3145874;28;19924;-63
2021/11/30 02:34:48;;;;;;;;;;;21.50;48.80;;;;;;3147627;28;19925;-62
2021/11/30 02:36:24;;;;;;;;;;;21.50;48.80;;;;;;3148610;28;20293;-62
2021/11/30 02:37:58;;;;;;;;;;;21.40;48.70;;;;;;3146934;28;19939;-63
2021/11/30 02:39:29;;;;;;;;;;;21.40;48.80;;;;;;3141540;28;20284;-62
2021/11/30 02:41:01;;;;;;;;;;;21.40;48.70;;;;;;3148019;28;19931;-63
2021/11/30 02:42:32;;;;;;;;;;;21.40;48.80;;;;;;3149589;28;20353;-61
2021/11/30 02:44:04;;;;;;;;;;;21.40;48.70;;;;;;3147494;28;20446;-62
2021/11/30 02:45:36;;;;;;;;;;;21.50;48.60;;;;;;3148657;28;19977;-63
2021/11/30 02:47:08;;;;;;;;;;;21.50;48.60;;;;;;3147009;28;19939;-63
2021/11/30 02:48:39;;;;;;;;;;;21.50;48.50;;;;;;3147844;28;20470;-64
2021/11/30 02:50:11;;;;;;;;;;;21.50;48.50;;;;;;3147671;28;19932;-63
2021/11/30 02:51:46;;;;;;;;;;;21.50;48.50;;;;;;3146378;28;20015;-63
2021/11/30 02:53:21;;;;;;;;;;;21.50;48.50;;;;;;3148388;28;20349;-63
2021/11/30 02:54:53;;;;;;;;;;;21.40;48.50;;;;;;3149554;28;20273;-63
2021/11/30 02:56:26;;;;;;;;;;;21.40;48.50;;;;;;3147267;28;19928;-61
2021/11/30 02:57:57;;;;;;;;;;;21.40;48.50;;;;;;3148461;28;19955;-62
2021/11/30 02:59:29;;;;;;;;;;;21.40;48.50;;;;;;3147340;28;19925;-62
2021/11/30 03:01:04;;;;;;;;;;;21.40;48.40;;;;;;3147591;28;19978;-62
2021/11/30 03:02:37;;;;;;;;;;;21.40;48.40;;;;;;3143711;28;20384;-63
2021/11/30 03:04:08;;;;;;;;;;;21.50;48.50;;;;;;3148195;28;19928;-62
2021/11/30 03:05:40;;;;;;;;;;;21.40;48.40;;;;;;3148492;28;19944;-63
2021/11/30 03:07:13;;;;;;;;;;;21.40;48.40;;;;;;3149260;28;20025;-62
2021/11/30 03:08:45;;;;;;;;;;;21.50;48.40;;;;;;3147066;28;19974;-62
2021/11/30 03:10:16;;;;;;;;;;;21.50;48.30;;;;;;3148906;28;19925;-62
2021/11/30 03:11:48;;;;;;;;;;;21.50;48.30;;;;;;3148221;28;19924;-61
2021/11/30 03:13:20;;;;;;;;;;;21.50;48.30;;;;;;3148423;28;19970;-63
2021/11/30 03:14:51;;;;;;;;;;;21.40;48.30;;;;;;3149380;28;19932;-62
2021/11/30 03:16:23;;;;;;;;;;;21.40;48.30;;;;;;3147279;28;19936;-63
2021/11/30 03:17:54;;;;;;;;;;;21.40;48.20;;;;;;3149295;28;19932;-62
2021/11/30 03:19:26;;;;;;;;;;;21.50;48.10;;;;;;3148195;28;19928;-63
2021/11/30 03:20:57;;;;;;;;;;;21.50;48.10;;;;;;3148258;28;20001;-62
2021/11/30 03:22:30;;;;;;;;;;;21.40;48.10;;;;;;3148292;28;19931;-64
2021/11/30 03:24:02;;;;;;;;;;;21.40;48.10;;;;;;3148008;28;19951;-63
2021/11/30 03:25:34;;;;;;;;;;;21.40;48.20;;;;;;3148106;28;19928;-64
2021/11/30 03:27:04;;;;;;;;;;;21.40;48.20;;;;;;3147470;28;20499;-62
2021/11/30 03:28:36;;;;;;;;;;;21.50;48.20;;;;;;3146281;28;20007;-63
2021/11/30 03:30:08;;;;;;;;;;;21.40;48.10;;;;;;3146983;28;19924;-63
2021/11/30 03:31:49;;;;;;;;;;;21.40;48.10;;;;;;3145740;28;19925;-64
2021/11/30 03:35:08;;;;;;;;;;;21.40;48.00;;;;;;3146691;28;19920;-62
2021/11/30 03:36:41;;;;;;;;;;;21.40;47.90;;;;;;3144641;28;20296;-61
2021/11/30 03:38:14;;;;;;;;;;;21.40;48.00;;;;;;3148186;28;19929;-63
2021/11/30 03:39:45;;;;;;;;;;;21.40;48.60;;;;;;3150055;28;19925;-62
2021/11/30 03:41:17;;;;;;;;;;;21.40;48.00;;;;;;3146232;28;19977;-62
2021/11/30 03:42:49;;;;;;;;;;;21.40;47.90;;;;;;3145292;28;19951;-63
2021/11/30 03:44:20;;;;;;;;;;;21.40;47.90;;;;;;3141122;28;20444;-62
2021/11/30 03:47:24;;;;;;;;;;;21.50;47.90;;;;;;3158081;28;19954;-61
2021/11/30 03:48:56;;;;;;;;;;;21.40;47.80;;;;;;3151644;28;20371;-62
2021/11/30 03:50:28;;;;;;;;;;;21.40;47.80;;;;;;3160427;28;20307;-62
2021/11/30 03:51:59;;;;;;;;;;;21.40;47.70;;;;;;3156296;28;19954;-62
2021/11/30 03:53:31;;;;;;;;;;;21.40;47.80;;;;;;3147418;28;20364;-62
2021/11/30 03:55:03;;;;;;;;;;;21.40;47.80;;;;;;3147927;28;19964;-62
2021/11/30 03:56:35;;;;;;;;;;;21.40;47.90;;;;;;3152315;28;19935;-62
2021/11/30 03:58:06;;;;;;;;;;;21.40;47.80;;;;;;3160070;28;19931;-62
2021/11/30 03:59:40;;;;;;;;;;;21.40;47.80;;;;;;3173757;22;19928;-56
2021/11/30 04:01:11;;;;;;;;;;;21.40;47.80;;;;;;3136571;28;20299;-56
2021/11/30 04:02:43;;;;;;;;;;;21.40;47.70;;;;;;3137625;28;19973;-56
2021/11/30 04:04:22;;;;;;;;;;;21.40;47.70;;;;;;3134750;28;19967;-55
2021/11/30 04:05:54;;;;;;;;;;;21.40;47.80;;;;;;3134237;28;19986;-55
2021/11/30 04:07:25;;;;;;;;;;;21.40;47.60;;;;;;3137738;28;19990;-54
2021/11/30 04:08:58;;;;;;;;;;;21.40;47.40;;;;;;3144460;28;20284;-55
2021/11/30 04:10:30;;;;;;;;;;;21.40;47.20;;;;;;3145928;28;19939;-57
2021/11/30 04:12:02;;;;;;;;;;;21.30;47.20;;;;;;3146232;28;20410;-57
2021/11/30 04:13:33;;;;;;;;;;;21.30;47.20;;;;;;3145075;28;20277;-54
2021/11/30 04:15:05;;;;;;;;;;;21.20;47.10;;;;;;3145955;28;20296;-58
2021/11/30 04:16:37;;;;;;;;;;;21.30;47.00;;;;;;3145703;28;20450;-58
2021/11/30 04:18:08;;;;;;;;;;;21.30;47.00;;;;;;3145619;28;20387;-56
2021/11/30 04:19:40;;;;;;;;;;;21.30;47.10;;;;;;3139637;28;19924;-57
2021/11/30 04:21:11;;;;;;;;;;;21.30;47.10;;;;;;3139147;28;19947;-56
2021/11/30 04:22:43;;;;;;;;;;;21.30;47.10;;;;;;3141864;28;19928;-59
2021/11/30 04:24:16;;;;;;;;;;;21.30;47.00;;;;;;3139501;28;19929;-56
2021/11/30 04:25:48;;;;;;;;;;;21.30;47.00;;;;;;3143793;28;19925;-58
2021/11/30 04:27:19;;;;;;;;;;;21.30;47.00;;;;;;3144842;28;19928;-56
2021/11/30 04:28:51;;;;;;;;;;;21.30;47.20;;;;;;3143881;28;20446;-55
2021/11/30 04:30:22;;;;;;;;;;;21.30;47.20;;;;;;3144779;28;20284;-55
2021/11/30 04:31:54;;;;;;;;;;;21.30;47.00;;;;;;3145561;28;20334;-56
2021/11/30 04:33:26;;;;;;;;;;;21.30;47.00;;;;;;3142279;28;19932;-57
2021/11/30 04:34:58;;;;;;;;;;;21.40;46.90;;;;;;3137300;28;19968;-57
2021/11/30 04:36:29;;;;;;;;;;;21.40;46.80;;;;;;3140272;28;19933;-56
2021/11/30 04:38:01;;;;;;;;;;;21.40;46.80;;;;;;3139753;28;19924;-58
2021/11/30 04:39:34;;;;;;;;;;;21.30;46.90;;;;;;3141984;28;20412;-57
2021/11/30 04:41:06;;;;;;;;;;;21.30;46.90;;;;;;3138575;28;19977;-57
2021/11/30 04:42:39;;;;;;;;;;;21.30;46.90;;;;;;3144497;28;19925;-55
2021/11/30 04:44:11;;;;;;;;;;;21.30;46.80;;;;;;3144825;28;19974;-55
2021/11/30 04:45:53;;;;;;;;;;;21.30;46.80;;;;;;3144691;28;20404;-59
2021/11/30 04:47:27;;;;;;;;;;;21.30;46.80;;;;;;3146002;28;19971;-58
2021/11/30 04:49:06;;;;;;;;;;;21.30;46.80;;;;;;3145374;28;20406;-58
2021/11/30 04:50:42;;;;;;;;;;;21.30;46.80;;;;;;3145161;28;19928;-55
2021/11/30 04:52:15;;;;;;;;;;;21.40;46.70;;;;;;3139810;28;19925;-57
2021/11/30 04:53:46;;;;;;;;;;;21.40;46.70;;;;;;3134209;28;20019;-57
2021/11/30 04:55:22;;;;;;;;;;;21.40;46.70;;;;;;3142997;28;20300;-57
2021/11/30 04:56:54;;;;;;;;;;;21.40;46.60;;;;;;3145165;28;20442;-54
2021/11/30 04:58:26;;;;;;;;;;;21.40;46.60;;;;;;3146193;28;19931;-58
2021/11/30 04:59:57;;;;;;;;;;;21.40;46.50;;;;;;3145642;28;19928;-55
2021/11/30 05:01:29;;;;;;;;;;;21.50;46.60;;;;;;3137112;28;19928;-57
2021/11/30 05:02:59;;;;;;;;;;;21.40;46.50;;;;;;3144862;28;20034;-58
2021/11/30 05:04:31;;;;;;;;;;;21.50;46.50;;;;;;3145322;28;19924;-58
2021/11/30 05:06:03;;;;;;;;;;;21.50;46.40;;;;;;3143078;28;20281;-56
2021/11/30 05:07:34;;;;;;;;;;;21.50;46.30;;;;;;3142619;28;20015;-56
2021/11/30 05:09:06;;;;;;;;;;;21.50;46.30;;;;;;3141819;28;19932;-58
2021/11/30 05:10:39;;;;;;;;;;;21.60;46.20;;;;;;3143802;28;19994;-58
2021/11/30 05:12:10;;;;;;;;;;;21.60;46.10;;;;;;3145823;28;19928;-58
2021/11/30 05:13:42;;;;;;;;;;;21.60;46.10;;;;;;3143672;28;19925;-57
2021/11/30 05:15:13;;;;;;;;;;;21.60;46.10;;;;;;3140933;28;19924;-54
2021/11/30 05:16:44;;;;;;;;;;;21.50;46.60;;;;;;3136601;28;20067;-55
2021/11/30 05:18:16;;;;;;;;;;;21.50;47.50;;;;;;3133803;28;20293;-57
2021/11/30 05:19:48;;;;;;;;;;;21.50;47.10;;;;;;3134747;28;19939;-54
2021/11/30 05:21:19;;;;;;;;;;;21.50;46.80;;;;;;3139871;28;19931;-56
2021/11/30 05:22:53;;;;;;;;;;;21.50;46.70;;;;;;3133804;28;20016;-55
2021/11/30 05:24:25;;;;;;;;;;;21.50;46.90;;;;;;3143778;28;19932;-52
2021/11/30 05:25:59;;;;;;;;;;;21.50;47.20;;;;;;3144609;28;19966;-53
2021/11/30 05:27:38;;;;;;;;;;;21.50;47.30;;;;;;3138733;28;19935;-54
2021/11/30 05:29:09;;;;;;;;;;;21.60;47.60;;;;;;3143744;28;19930;-51
2021/11/30 05:30:41;;;;;;;;;;;21.70;47.70;;;;;;3144261;28;20425;-53
2021/11/30 05:32:13;;;;;;;;;;;21.70;47.70;;;;;;3140231;28;19924;-52
2021/11/30 05:33:45;;;;;;;;;;;21.80;47.90;;;;;;3143461;28;19978;-56
2021/11/30 05:35:16;;;;;;;;;;;21.80;48.00;;;;;;3144760;28;20376;-58
2021/11/30 05:36:48;;;;;;;;;;;21.80;48.10;;;;;;3144943;28;19924;-58
2021/11/30 05:38:20;;;;;;;;;;;21.90;48.00;;;;;;3138651;28;19929;-51
2021/11/30 05:39:51;;;;;;;;;;;21.90;47.90;;;;;;3144237;28;19929;-51
2021/11/30 05:41:24;;;;;;;;;;;22.00;48.10;;;;;;3138794;28;19925;-56
2021/11/30 05:42:56;;;;;;;;;;;22.00;48.10;;;;;;3132993;28;19924;-57
2021/11/30 05:44:27;;;;;;;;;;;22.00;48.00;;;;;;3141172;28;19931;-58
2021/11/30 05:45:59;;;;;;;;;;;22.10;48.00;;;;;;3142726;28;20399;-56
2021/11/30 05:47:29;;;;;;;;;;;22.10;47.90;;;;;;3140383;28;19975;-56
2021/11/30 05:49:01;;;;;;;;;;;22.20;48.00;;;;;;3142316;28;19924;-58
2021/11/30 05:50:32;;;;;;;;;;;22.20;48.20;;;;;;3137062;28;20419;-55
2021/11/30 05:52:03;;;;;;;;;;;22.20;48.30;;;;;;3136532;28;19986;-55
2021/11/30 05:53:35;;;;;;;;;;;22.20;48.20;;;;;;3137047;28;19921;-55
2021/11/30 05:55:07;;;;;;;;;;;22.20;48.40;;;;;;3138013;28;20289;-52
2021/11/30 05:56:41;;;;;;;;;;;22.20;48.40;;;;;;3138220;28;19983;-54
2021/11/30 05:58:14;;;;;;;;;;;22.30;48.20;;;;;;3144841;28;19925;-52
2021/11/30 05:59:46;;;;;;;;;;;22.30;48.50;;;;;;3142918;28;19955;-57
2021/11/30 06:01:22;;;;;;;;;;;22.30;48.20;;;;;;3133145;28;19924;-57
2021/11/30 06:03:00;;;;;;;;;;;22.30;48.10;;;;;;3142478;28;19928;-58
2021/11/30 06:04:32;;;;;;;;;;;22.30;48.30;;;;;;3143546;28;19960;-58
2021/11/30 06:06:03;;;;;;;;;;;22.40;48.30;;;;;;3144986;28;19924;-55
2021/11/30 06:07:35;;;;;;;;;;;22.40;47.80;;;;;;3143126;28;19924;-54
2021/11/30 06:09:07;;;;;;;;;;;22.30;47.40;;;;;;3138722;28;19925;-55
2021/11/30 06:10:38;;;;;;;;;;;22.30;47.80;;;;;;3143641;28;19978;-58
2021/11/30 06:12:11;;;;;;;;;;;22.30;47.80;;;;;;3144689;28;19924;-57
2021/11/30 06:13:43;;;;;;;;;;;22.40;47.70;;;;;;3131787;28;19924;-55
2021/11/30 06:15:15;;;;;;;;;;;22.40;47.70;;;;;;3137176;28;20503;-59
2021/11/30 06:16:46;;;;;;;;;;;22.40;47.90;;;;;;3136255;28;19935;-57
2021/11/30 06:18:18;;;;;;;;;;;22.40;48.40;;;;;;3145283;28;19925;-57
2021/11/30 06:19:49;;;;;;;;;;;22.40;48.60;;;;;;3144967;28;19971;-58
2021/11/30 06:21:21;;;;;;;;;;;22.40;48.50;;;;;;3141521;28;20397;-58
2021/11/30 06:22:53;;;;;;;;;;;22.40;48.50;;;;;;3142518;28;19925;-54
2021/11/30 06:24:24;;;;;;;;;;;22.50;48.60;;;;;;3143975;28;20316;-56
2021/11/30 06:25:56;;;;;;;;;;;22.50;48.80;;;;;;3144841;28;19950;-58
2021/11/30 06:27:32;;;;;;;;;;;22.50;49.20;;;;;;3137731;28;20123;-59
2021/11/30 06:29:04;;;;;;;;;;;22.40;49.10;;;;;;3142422;28;19925;-58
2021/11/30 06:30:35;;;;;;;;;;;22.40;49.10;;;;;;3143890;28;19935;-56
2021/11/30 06:32:07;;;;;;;;;;;22.50;49.20;;;;;;3136950;28;19925;-51
2021/11/30 06:33:39;;;;;;;;;;;22.40;49.80;;;;;;3137085;28;20416;-55
2021/11/30 06:35:10;;;;;;;;;;;22.50;49.50;;;;;;3138013;28;19942;-54
2021/11/30 06:36:42;;;;;;;;;;;22.40;49.50;;;;;;3145603;28;19928;-54
2021/11/30 06:38:14;;;;;;;;;;;22.40;49.60;;;;;;3144438;28;19925;-55
2021/11/30 06:39:45;;;;;;;;;;;22.40;49.50;;;;;;3134867;28;19958;-55
2021/11/30 06:41:17;;;;;;;;;;;22.40;49.00;;;;;;3144347;28;20357;-55
2021/11/30 06:42:50;;;;;;;;;;;22.30;48.90;;;;;;3144435;28;19936;-56
2021/11/30 06:44:22;;;;;;;;;;;22.40;49.00;;;;;;3143688;28;19939;-54
2021/11/30 06:45:53;;;;;;;;;;;22.40;49.00;;;;;;3139640;28;20468;-54
2021/11/30 06:47:25;;;;;;;;;;;22.50;49.00;;;;;;3140558;28;19924;-51
2021/11/30 06:48:56;;;;;;;;;;;22.40;48.80;;;;;;3138290;28;19925;-55
2021/11/30 06:50:28;;;;;;;;;;;22.50;48.60;;;;;;3133915;28;20327;-51
2021/11/30 06:52:00;;;;;;;;;;;22.50;48.40;;;;;;3141125;28;19925;-54
2021/11/30 06:53:34;;;;;;;;;;;22.30;47.50;;;;;;3143487;28;20011;-56
2021/11/30 06:55:05;;;;;;;;;;;22.20;47.20;;;;;;3137043;28;20004;-57
2021/11/30 06:56:37;;;;;;;;;;;22.20;47.60;;;;;;3142363;28;19943;-58
2021/11/30 06:58:10;;;;;;;;;;;22.20;48.10;;;;;;3145856;28;19928;-53
2021/11/30 06:59:42;;;;;;;;;;;22.20;48.40;;;;;;3135911;28;19998;-57
2021/11/30 07:01:13;;;;;;;;;;;22.20;48.60;;;;;;3135829;28;20293;-57
2021/11/30 07:02:45;;;;;;;;;;;22.30;48.40;;;;;;3144013;28;19931;-57
2021/11/30 07:04:17;;;;;;;;;;;22.30;48.70;;;;;;3141270;28;20419;-59
2021/11/30 07:05:53;;;;;;;;;;;22.30;48.60;;;;;;3142152;28;19925;-56
2021/11/30 07:07:31;;;;;;;;;;;22.50;48.50;;;;;;3133613;28;19932;-54
2021/11/30 07:09:15;;;;;;;;;;;22.80;47.90;;;;;;3142205;28;19932;-59
2021/11/30 07:10:49;;;;;;;;;;;23.20;47.40;;;;;;3145256;28;19975;-58
2021/11/30 07:12:46;;;;;;;;;;;23.40;46.90;;;;;;3145248;28;19925;-54
2021/11/30 07:14:19;;;;;;;;;;;23.60;46.60;;;;;;3132056;28;19925;-59
2021/11/30 07:15:52;;;;;;;;;;;23.90;46.20;;;;;;3143540;28;19928;-57
2021/11/30 07:17:23;;;;;;;;;;;24.10;45.80;;;;;;3136591;28;19979;-57
2021/11/30 07:18:55;;;;;;;;;;;24.30;45.60;;;;;;3143715;28;20364;-56
2021/11/30 07:20:27;;;;;;;;;;;24.40;45.50;;;;;;3147282;28;19931;-57
2021/11/30 07:21:58;;;;;;;;;;;24.50;45.50;;;;;;3144495;28;19928;-52
2021/11/30 07:23:30;;;;;;;;;;;24.30;46.00;;;;;;3145798;28;20434;-54
2021/11/30 07:25:02;;;;;;;;;;;24.00;46.80;;;;;;3146174;28;19928;-55
2021/11/30 07:26:33;;;;;;;;;;;23.80;47.40;;;;;;3144776;28;19932;-51
2021/11/30 07:28:05;;;;;;;;;;;23.50;47.40;;;;;;3141027;28;20380;-55
2021/11/30 07:29:38;;;;;;;;;;;23.40;47.90;;;;;;3139292;28;19962;-56
2021/11/30 07:31:11;;;;;;;;;;;23.30;48.00;;;;;;3143051;28;19928;-57
2021/11/30 07:32:43;;;;;;;;;;;23.10;47.70;;;;;;3143362;28;19935;-55
2021/11/30 07:34:14;;;;;;;;;;;23.00;48.00;;;;;;3144606;28;19958;-56
2021/11/30 07:35:46;;;;;;;;;;;22.90;48.30;;;;;;3145615;28;20343;-53
2021/11/30 07:37:17;;;;;;;;;;;22.90;48.60;;;;;;3147192;28;19925;-56
2021/11/30 07:38:49;;;;;;;;;;;22.80;48.70;;;;;;3145625;28;19981;-55
2021/11/30 07:40:20;;;;;;;;;;;22.70;48.30;;;;;;3142033;28;20334;-55
2021/11/30 07:41:52;;;;;;;;;;;22.70;47.90;;;;;;3146808;28;19940;-53
2021/11/30 07:43:24;;;;;;;;;;;22.80;47.90;;;;;;3138804;28;19928;-56
2021/11/30 07:44:57;;;;;;;;;;;22.90;47.50;;;;;;3146776;28;19924;-56
2021/11/30 07:46:28;;;;;;;;;;;23.00;46.60;;;;;;3144132;28;19928;-55
2021/11/30 07:48:00;;;;;;;;;;;23.10;46.40;;;;;;3137323;28;19925;-53
2021/11/30 07:49:31;;;;;;;;;;;23.20;46.30;;;;;;3142630;28;20421;-55
2021/11/30 07:51:03;;;;;;;;;;;23.40;46.00;;;;;;3141495;28;19986;-53
2021/11/30 07:52:39;;;;;;;;;;;23.70;45.20;;;;;;3144614;28;20327;-52
2021/11/30 07:54:11;;;;;;;;;;;24.00;44.50;;;;;;3139018;28;19924;-54
2021/11/30 07:55:42;;;;;;;;;;;24.20;44.10;;;;;;3143879;28;19947;-54
2021/11/30 07:57:14;;;;;;;;;;;24.30;43.70;;;;;;3141927;28;20446;-52
2021/11/30 07:58:45;;;;;;;;;;;24.20;44.30;;;;;;3142207;28;19924;-56
2021/11/30 08:00:18;;;;;;;;;;;24.00;44.70;;;;;;3142926;28;19978;-52
2021/11/30 08:01:50;;;;;;;;;;;23.70;45.00;;;;;;3137418;28;19978;-53
2021/11/30 08:03:22;;;;;;;;;;;23.50;45.30;;;;;;3143320;28;20353;-50
2021/11/30 08:04:53;;;;;;;;;;;23.30;47.30;;;;;;3143169;28;20296;-51
2021/11/30 08:06:25;;;;;;;;;;;23.00;49.30;;;;;;3139063;28;21390;-54
2021/11/30 08:07:57;;;;;;;;;;;22.90;49.80;;;;;;3140524;28;20092;-53
2021/11/30 08:09:33;;;;;;;;;;;22.90;49.60;;;;;;3141496;28;19946;-55
2021/11/30 08:11:05;;;;;;;;;;;22.80;50.10;;;;;;3145443;28;19932;-52
2021/11/30 08:12:36;;;;;;;;;;;22.70;50.30;;;;;;3145303;28;20292;-54
2021/11/30 08:14:10;;;;;;;;;;;22.70;49.90;;;;;;3137379;28;19931;-52
2021/11/30 08:15:43;;;;;;;;;;;22.70;49.50;;;;;;3141142;28;20024;-54
2021/11/30 08:17:16;;;;;;;;;;;22.70;49.20;;;;;;3143481;28;20432;-53
2021/11/30 08:18:47;;;;;;;;;;;22.60;48.80;;;;;;3142920;28;20607;-53
2021/11/30 08:20:19;;;;;;;;;;;22.60;48.60;;;;;;3145117;28;19932;-54
2021/11/30 08:21:50;;;;;;;;;;;22.50;48.60;;;;;;3144662;28;19951;-53
2021/11/30 08:23:22;;;;;;;;;;;22.50;48.30;;;;;;3141881;28;19932;-54
2021/11/30 08:24:53;;;;;;;;;;;22.50;47.90;;;;;;3140633;28;20814;-56
2021/11/30 08:26:25;;;;;;;;;;;22.50;47.80;;;;;;3142877;28;19932;-53
2021/11/30 08:27:56;;;;;;;;;;;22.60;47.60;;;;;;3143597;28;19924;-53
2021/11/30 08:29:28;;;;;;;;;;;22.50;47.40;;;;;;3138261;28;19935;-54
2021/11/30 08:31:01;;;;;;;;;;;22.50;47.50;;;;;;3140951;28;19925;-57
2021/11/30 08:32:34;;;;;;;;;;;22.50;47.80;;;;;;3142512;28;19929;-57
2021/11/30 08:34:05;;;;;;;;;;;22.60;47.70;;;;;;3141231;28;19924;-57
2021/11/30 08:35:37;;;;;;;;;;;22.60;48.50;;;;;;3140000;28;19925;-55
2021/11/30 08:37:09;;;;;;;;;;;22.50;48.90;;;;;;3144855;28;19971;-58
2021/11/30 08:38:41;;;;;;;;;;;22.40;49.70;;;;;;3142021;28;19925;-58
2021/11/30 08:40:13;;;;;;;;;;;22.40;49.80;;;;;;3144610;28;20251;-58
2021/11/30 08:41:58;;;;;;;;;;;22.40;49.50;;;;;;3141132;28;20588;-56
2021/11/30 08:43:47;;;;;;;;;;;22.40;49.60;;;;;;3124208;28;19971;-58
2021/11/30 08:45:26;;;;;;;;;;;22.30;49.30;;;;;;3121509;28;19925;-58
2021/11/30 08:46:59;;;;;;;;;;;22.30;49.20;;;;;;3132258;28;19974;-58
2021/11/30 08:48:31;;;;;;;;;;;22.30;49.10;;;;;;3134254;28;20019;-58
2021/11/30 08:50:03;;;;;;;;;;;22.30;48.90;;;;;;3133735;28;20285;-56
2021/11/30 08:51:34;;;;;;;;;;;22.30;48.70;;;;;;3134117;28;19928;-58
2021/11/30 08:53:06;;;;;;;;;;;22.30;48.70;;;;;;3136365;28;19931;-58
2021/11/30 08:54:37;;;;;;;;;;;22.20;48.70;;;;;;3146275;28;19924;-57
2021/11/30 08:56:09;;;;;;;;;;;22.30;48.60;;;;;;3142671;28;20707;-57
2021/11/30 08:57:41;;;;;;;;;;;22.30;48.60;;;;;;3134332;28;19929;-57
2021/11/30 08:59:12;;;;;;;;;;;22.30;48.60;;;;;;3146342;28;19974;-57
2021/11/30 09:00:44;;;;;;;;;;;22.20;48.60;;;;;;3144883;28;19974;-54
2021/11/30 09:02:17;;;;;;;;;;;22.20;48.70;;;;;;3146401;28;19998;-56
2021/11/30 09:03:48;;;;;;;;;;;22.20;48.60;;;;;;3145014;28;20379;-52